sensor_id;sensor_type;location;lat;lon;timestamp;P1;durP1;ratioP1;P2;durP2;ratioP2
22679;SDS011;11507;44.858;10.374;2023-09-19T00:00:45;11.45;;;4.68;;
22679;SDS011;11507;44.858;10.374;2023-09-19T00:03:12;19.55;;;6.88;;
22679;SDS011;11507;44.858;10.374;2023-09-19T00:05:39;13.93;;;6.20;;
22679;SDS011;11507;44.858;10.374;2023-09-19T00:08:07;13.38;;;5.78;;
22679;SDS011;11507;44.858;10.374;2023-09-19T00:10:33;13.23;;;6.57;;
22679;SDS011;11507;44.858;10.374;2023-09-19T00:13:02;15.20;;;6.03;;
22679;SDS011;11507;44.858;10.374;2023-09-19T00:15:37;19.63;;;7.28;;
22679;SDS011;11507;44.858;10.374;2023-09-19T00:18:05;15.25;;;6.07;;
22679;SDS011;11507;44.858;10.374;2023-09-19T00:20:38;13.55;;;6.22;;
22679;SDS011;11507;44.858;10.374;2023-09-19T00:23:04;15.65;;;6.32;;
22679;SDS011;11507;44.858;10.374;2023-09-19T00:25:30;14.02;;;6.20;;
22679;SDS011;11507;44.858;10.374;2023-09-19T00:28:01;15.32;;;6.88;;
22679;SDS011;11507;44.858;10.374;2023-09-19T00:30:27;11.93;;;6.38;;
22679;SDS011;11507;44.858;10.374;2023-09-19T00:32:53;14.63;;;6.20;;
22679;SDS011;11507;44.858;10.374;2023-09-19T00:35:23;15.73;;;6.22;;
22679;SDS011;11507;44.858;10.374;2023-09-19T00:37:50;17.75;;;6.88;;
22679;SDS011;11507;44.858;10.374;2023-09-19T00:40:17;16.98;;;7.45;;
22679;SDS011;11507;44.858;10.374;2023-09-19T00:42:44;19.23;;;7.63;;
22679;SDS011;11507;44.858;10.374;2023-09-19T00:45:11;19.83;;;8.23;;
22679;SDS011;11507;44.858;10.374;2023-09-19T00:47:43;18.45;;;8.23;;
22679;SDS011;11507;44.858;10.374;2023-09-19T00:50:11;18.50;;;7.13;;
22679;SDS011;11507;44.858;10.374;2023-09-19T00:52:40;18.13;;;7.68;;
22679;SDS011;11507;44.858;10.374;2023-09-19T00:55:09;20.23;;;8.25;;
22679;SDS011;11507;44.858;10.374;2023-09-19T00:57:37;20.38;;;8.05;;
22679;SDS011;11507;44.858;10.374;2023-09-19T01:00:04;17.55;;;8.15;;
22679;SDS011;11507;44.858;10.374;2023-09-19T01:02:34;14.73;;;7.22;;
22679;SDS011;11507;44.858;10.374;2023-09-19T01:05:00;16.55;;;6.97;;
22679;SDS011;11507;44.858;10.374;2023-09-19T01:07:27;14.23;;;6.70;;
22679;SDS011;11507;44.858;10.374;2023-09-19T01:09:57;15.75;;;7.55;;
22679;SDS011;11507;44.858;10.374;2023-09-19T01:12:32;16.52;;;7.05;;
22679;SDS011;11507;44.858;10.374;2023-09-19T01:15:49;14.93;;;6.60;;
22679;SDS011;11507;44.858;10.374;2023-09-19T01:18:19;14.55;;;6.82;;
22679;SDS011;11507;44.858;10.374;2023-09-19T01:21:08;13.40;;;6.82;;
22679;SDS011;11507;44.858;10.374;2023-09-19T01:27:03;14.60;;;7.00;;
22679;SDS011;11507;44.858;10.374;2023-09-19T01:30:14;17.17;;;6.70;;
22679;SDS011;11507;44.858;10.374;2023-09-19T01:32:43;14.27;;;6.95;;
22679;SDS011;11507;44.858;10.374;2023-09-19T01:35:11;18.38;;;6.70;;
22679;SDS011;11507;44.858;10.374;2023-09-19T01:37:38;18.65;;;6.72;;
22679;SDS011;11507;44.858;10.374;2023-09-19T01:40:06;20.58;;;7.25;;
22679;SDS011;11507;44.858;10.374;2023-09-19T01:42:45;14.52;;;6.38;;
22679;SDS011;11507;44.858;10.374;2023-09-19T01:45:50;17.15;;;6.72;;
22679;SDS011;11507;44.858;10.374;2023-09-19T01:51:20;11.77;;;5.90;;
22679;SDS011;11507;44.858;10.374;2023-09-19T01:53:56;12.27;;;6.82;;
22679;SDS011;11507;44.858;10.374;2023-09-19T01:56:30;15.70;;;5.88;;
22679;SDS011;11507;44.858;10.374;2023-09-19T01:59:04;16.92;;;6.32;;
22679;SDS011;11507;44.858;10.374;2023-09-19T02:01:35;15.15;;;5.88;;
22679;SDS011;11507;44.858;10.374;2023-09-19T02:04:03;12.45;;;5.85;;
22679;SDS011;11507;44.858;10.374;2023-09-19T02:12:26;25.95;;;7.78;;
22679;SDS011;11507;44.858;10.374;2023-09-19T02:14:52;19.55;;;7.28;;
22679;SDS011;11507;44.858;10.374;2023-09-19T02:17:19;17.83;;;6.45;;
22679;SDS011;11507;44.858;10.374;2023-09-19T02:19:45;16.08;;;7.43;;
22679;SDS011;11507;44.858;10.374;2023-09-19T02:22:12;13.80;;;6.40;;
22679;SDS011;11507;44.858;10.374;2023-09-19T02:24:39;13.68;;;5.95;;
22679;SDS011;11507;44.858;10.374;2023-09-19T02:27:05;16.95;;;7.32;;
22679;SDS011;11507;44.858;10.374;2023-09-19T02:29:33;16.83;;;8.07;;
22679;SDS011;11507;44.858;10.374;2023-09-19T02:32:00;13.48;;;6.85;;
22679;SDS011;11507;44.858;10.374;2023-09-19T02:34:27;16.00;;;8.18;;
22679;SDS011;11507;44.858;10.374;2023-09-19T02:36:53;18.88;;;7.75;;
22679;SDS011;11507;44.858;10.374;2023-09-19T02:39:22;16.13;;;6.78;;
22679;SDS011;11507;44.858;10.374;2023-09-19T02:41:49;15.35;;;7.47;;
22679;SDS011;11507;44.858;10.374;2023-09-19T02:44:15;17.25;;;7.70;;
22679;SDS011;11507;44.858;10.374;2023-09-19T02:46:41;14.50;;;7.22;;
22679;SDS011;11507;44.858;10.374;2023-09-19T02:49:07;18.23;;;6.93;;
22679;SDS011;11507;44.858;10.374;2023-09-19T02:51:34;12.60;;;5.80;;
22679;SDS011;11507;44.858;10.374;2023-09-19T02:54:00;18.95;;;6.15;;
22679;SDS011;11507;44.858;10.374;2023-09-19T02:56:29;17.05;;;5.70;;
22679;SDS011;11507;44.858;10.374;2023-09-19T02:58:57;14.45;;;6.50;;
22679;SDS011;11507;44.858;10.374;2023-09-19T03:01:26;14.40;;;6.10;;
22679;SDS011;11507;44.858;10.374;2023-09-19T03:03:55;15.40;;;6.20;;
22679;SDS011;11507;44.858;10.374;2023-09-19T03:06:22;15.23;;;7.00;;
22679;SDS011;11507;44.858;10.374;2023-09-19T03:08:49;20.58;;;7.00;;
22679;SDS011;11507;44.858;10.374;2023-09-19T03:11:19;15.43;;;6.15;;
22679;SDS011;11507;44.858;10.374;2023-09-19T03:13:51;16.75;;;6.95;;
22679;SDS011;11507;44.858;10.374;2023-09-19T03:16:19;14.05;;;7.00;;
22679;SDS011;11507;44.858;10.374;2023-09-19T03:18:49;16.33;;;7.45;;
22679;SDS011;11507;44.858;10.374;2023-09-19T03:21:16;15.73;;;7.50;;
22679;SDS011;11507;44.858;10.374;2023-09-19T03:23:43;14.23;;;7.53;;
22679;SDS011;11507;44.858;10.374;2023-09-19T03:26:12;18.25;;;7.88;;
22679;SDS011;11507;44.858;10.374;2023-09-19T03:28:42;17.45;;;8.07;;
22679;SDS011;11507;44.858;10.374;2023-09-19T03:31:09;15.20;;;7.50;;
22679;SDS011;11507;44.858;10.374;2023-09-19T03:33:36;15.27;;;7.18;;
22679;SDS011;11507;44.858;10.374;2023-09-19T03:36:04;14.40;;;6.60;;
22679;SDS011;11507;44.858;10.374;2023-09-19T03:38:31;13.90;;;7.10;;
22679;SDS011;11507;44.858;10.374;2023-09-19T03:40:58;15.57;;;7.18;;
22679;SDS011;11507;44.858;10.374;2023-09-19T03:43:24;15.27;;;7.00;;
22679;SDS011;11507;44.858;10.374;2023-09-19T03:45:51;22.58;;;8.38;;
22679;SDS011;11507;44.858;10.374;2023-09-19T03:48:20;16.90;;;8.13;;
22679;SDS011;11507;44.858;10.374;2023-09-19T03:50:50;14.30;;;7.25;;
22679;SDS011;11507;44.858;10.374;2023-09-19T03:53:18;15.10;;;7.43;;
22679;SDS011;11507;44.858;10.374;2023-09-19T03:55:45;15.82;;;7.90;;
22679;SDS011;11507;44.858;10.374;2023-09-19T03:58:11;25.05;;;9.90;;
22679;SDS011;11507;44.858;10.374;2023-09-19T04:00:38;19.77;;;9.80;;
22679;SDS011;11507;44.858;10.374;2023-09-19T04:03:04;17.27;;;7.75;;
22679;SDS011;11507;44.858;10.374;2023-09-19T04:05:31;14.25;;;7.43;;
22679;SDS011;11507;44.858;10.374;2023-09-19T04:07:59;20.55;;;8.30;;
22679;SDS011;11507;44.858;10.374;2023-09-19T04:10:25;22.48;;;7.68;;
22679;SDS011;11507;44.858;10.374;2023-09-19T04:12:54;22.30;;;10.90;;
22679;SDS011;11507;44.858;10.374;2023-09-19T04:15:21;16.48;;;8.32;;
22679;SDS011;11507;44.858;10.374;2023-09-19T04:17:50;17.38;;;7.95;;
22679;SDS011;11507;44.858;10.374;2023-09-19T04:20:17;18.42;;;8.43;;
22679;SDS011;11507;44.858;10.374;2023-09-19T04:22:45;21.10;;;8.40;;
22679;SDS011;11507;44.858;10.374;2023-09-19T04:25:12;18.05;;;9.40;;
22679;SDS011;11507;44.858;10.374;2023-09-19T04:27:38;23.05;;;10.52;;
22679;SDS011;11507;44.858;10.374;2023-09-19T04:30:06;28.90;;;11.68;;
22679;SDS011;11507;44.858;10.374;2023-09-19T04:32:37;28.38;;;12.82;;
22679;SDS011;11507;44.858;10.374;2023-09-19T04:35:10;21.50;;;12.43;;
22679;SDS011;11507;44.858;10.374;2023-09-19T04:37:37;31.10;;;13.20;;
22679;SDS011;11507;44.858;10.374;2023-09-19T04:40:05;26.33;;;13.25;;
22679;SDS011;11507;44.858;10.374;2023-09-19T04:42:45;31.33;;;13.23;;
22679;SDS011;11507;44.858;10.374;2023-09-19T04:45:25;29.70;;;13.07;;
22679;SDS011;11507;44.858;10.374;2023-09-19T04:47:53;33.90;;;13.95;;
22679;SDS011;11507;44.858;10.374;2023-09-19T04:50:19;27.63;;;13.57;;
22679;SDS011;11507;44.858;10.374;2023-09-19T04:52:51;25.52;;;13.75;;
22679;SDS011;11507;44.858;10.374;2023-09-19T04:55:17;32.97;;;13.85;;
22679;SDS011;11507;44.858;10.374;2023-09-19T04:57:45;32.30;;;15.32;;
22679;SDS011;11507;44.858;10.374;2023-09-19T05:00:13;28.83;;;14.85;;
22679;SDS011;11507;44.858;10.374;2023-09-19T05:02:42;31.30;;;16.02;;
22679;SDS011;11507;44.858;10.374;2023-09-19T05:05:09;32.63;;;15.30;;
22679;SDS011;11507;44.858;10.374;2023-09-19T05:07:37;29.23;;;14.50;;
22679;SDS011;11507;44.858;10.374;2023-09-19T05:10:04;28.33;;;14.68;;
22679;SDS011;11507;44.858;10.374;2023-09-19T05:12:35;28.02;;;14.63;;
22679;SDS011;11507;44.858;10.374;2023-09-19T05:15:04;30.35;;;15.75;;
22679;SDS011;11507;44.858;10.374;2023-09-19T05:17:34;38.92;;;18.13;;
22679;SDS011;11507;44.858;10.374;2023-09-19T05:20:01;31.92;;;17.90;;
22679;SDS011;11507;44.858;10.374;2023-09-19T05:22:43;36.95;;;18.85;;
22679;SDS011;11507;44.858;10.374;2023-09-19T05:25:11;40.45;;;19.67;;
22679;SDS011;11507;44.858;10.374;2023-09-19T05:27:43;42.22;;;21.45;;
22679;SDS011;11507;44.858;10.374;2023-09-19T05:30:10;45.38;;;23.05;;
22679;SDS011;11507;44.858;10.374;2023-09-19T05:32:39;46.30;;;21.95;;
22679;SDS011;11507;44.858;10.374;2023-09-19T05:35:05;49.78;;;23.58;;
22679;SDS011;11507;44.858;10.374;2023-09-19T05:37:35;49.47;;;24.17;;
22679;SDS011;11507;44.858;10.374;2023-09-19T05:40:02;47.03;;;24.60;;
22679;SDS011;11507;44.858;10.374;2023-09-19T05:42:32;41.00;;;21.75;;
22679;SDS011;11507;44.858;10.374;2023-09-19T05:44:58;43.10;;;21.90;;
22679;SDS011;11507;44.858;10.374;2023-09-19T05:47:24;49.45;;;24.38;;
22679;SDS011;11507;44.858;10.374;2023-09-19T05:49:51;47.63;;;24.52;;
22679;SDS011;11507;44.858;10.374;2023-09-19T05:52:17;45.17;;;23.48;;
22679;SDS011;11507;44.858;10.374;2023-09-19T05:54:44;43.92;;;24.38;;
22679;SDS011;11507;44.858;10.374;2023-09-19T05:57:10;48.53;;;24.50;;
22679;SDS011;11507;44.858;10.374;2023-09-19T05:59:37;51.28;;;26.90;;
22679;SDS011;11507;44.858;10.374;2023-09-19T06:02:05;55.10;;;29.98;;
22679;SDS011;11507;44.858;10.374;2023-09-19T06:04:32;60.67;;;30.75;;
22679;SDS011;11507;44.858;10.374;2023-09-19T06:06:58;51.83;;;30.08;;
22679;SDS011;11507;44.858;10.374;2023-09-19T06:09:24;57.97;;;30.83;;
22679;SDS011;11507;44.858;10.374;2023-09-19T06:11:50;62.28;;;31.00;;
22679;SDS011;11507;44.858;10.374;2023-09-19T06:14:17;54.95;;;29.38;;
22679;SDS011;11507;44.858;10.374;2023-09-19T06:16:44;60.35;;;31.20;;
22679;SDS011;11507;44.858;10.374;2023-09-19T06:19:10;54.78;;;30.10;;
22679;SDS011;11507;44.858;10.374;2023-09-19T06:21:37;62.70;;;31.92;;
22679;SDS011;11507;44.858;10.374;2023-09-19T06:24:04;59.20;;;31.52;;
22679;SDS011;11507;44.858;10.374;2023-09-19T06:26:30;59.45;;;30.77;;
22679;SDS011;11507;44.858;10.374;2023-09-19T06:28:57;55.10;;;31.77;;
22679;SDS011;11507;44.858;10.374;2023-09-19T06:31:25;58.58;;;32.63;;
22679;SDS011;11507;44.858;10.374;2023-09-19T06:33:54;53.97;;;31.45;;
22679;SDS011;11507;44.858;10.374;2023-09-19T06:36:20;59.42;;;31.67;;
22679;SDS011;11507;44.858;10.374;2023-09-19T06:38:47;55.25;;;31.73;;
22679;SDS011;11507;44.858;10.374;2023-09-19T06:41:14;55.30;;;31.33;;
22679;SDS011;11507;44.858;10.374;2023-09-19T06:43:42;58.75;;;30.65;;
22679;SDS011;11507;44.858;10.374;2023-09-19T06:46:09;61.40;;;32.00;;
22679;SDS011;11507;44.858;10.374;2023-09-19T06:48:35;59.03;;;30.83;;
22679;SDS011;11507;44.858;10.374;2023-09-19T06:51:01;52.88;;;31.15;;
22679;SDS011;11507;44.858;10.374;2023-09-19T06:53:33;53.03;;;29.95;;
22679;SDS011;11507;44.858;10.374;2023-09-19T06:56:01;60.92;;;31.08;;
22679;SDS011;11507;44.858;10.374;2023-09-19T06:58:27;60.30;;;31.52;;
22679;SDS011;11507;44.858;10.374;2023-09-19T07:00:54;58.38;;;31.48;;
22679;SDS011;11507;44.858;10.374;2023-09-19T07:03:20;50.95;;;30.83;;
22679;SDS011;11507;44.858;10.374;2023-09-19T07:05:48;55.00;;;31.08;;
22679;SDS011;11507;44.858;10.374;2023-09-19T07:08:14;53.65;;;31.80;;
22679;SDS011;11507;44.858;10.374;2023-09-19T07:10:41;54.35;;;31.52;;
22679;SDS011;11507;44.858;10.374;2023-09-19T07:13:18;57.55;;;30.67;;
22679;SDS011;11507;44.858;10.374;2023-09-19T07:15:44;57.22;;;30.33;;
22679;SDS011;11507;44.858;10.374;2023-09-19T07:18:16;53.35;;;31.15;;
22679;SDS011;11507;44.858;10.374;2023-09-19T07:20:43;54.00;;;30.60;;
22679;SDS011;11507;44.858;10.374;2023-09-19T07:23:16;53.00;;;30.50;;
22679;SDS011;11507;44.858;10.374;2023-09-19T07:25:43;49.78;;;30.10;;
22679;SDS011;11507;44.858;10.374;2023-09-19T07:28:10;55.10;;;32.10;;
22679;SDS011;11507;44.858;10.374;2023-09-19T07:30:36;56.58;;;32.45;;
22679;SDS011;11507;44.858;10.374;2023-09-19T07:33:03;57.95;;;32.60;;
22679;SDS011;11507;44.858;10.374;2023-09-19T07:35:30;55.38;;;31.23;;
22679;SDS011;11507;44.858;10.374;2023-09-19T07:37:57;53.47;;;32.20;;
22679;SDS011;11507;44.858;10.374;2023-09-19T07:40:27;57.17;;;34.90;;
22679;SDS011;11507;44.858;10.374;2023-09-19T07:42:57;51.75;;;30.05;;
22679;SDS011;11507;44.858;10.374;2023-09-19T07:45:27;59.08;;;32.45;;
22679;SDS011;11507;44.858;10.374;2023-09-19T07:47:55;54.92;;;32.42;;
22679;SDS011;11507;44.858;10.374;2023-09-19T07:50:21;53.05;;;31.92;;
22679;SDS011;11507;44.858;10.374;2023-09-19T07:52:48;54.95;;;32.10;;
22679;SDS011;11507;44.858;10.374;2023-09-19T07:55:16;52.25;;;30.67;;
22679;SDS011;11507;44.858;10.374;2023-09-19T07:57:44;48.05;;;28.67;;
22679;SDS011;11507;44.858;10.374;2023-09-19T08:00:12;55.05;;;31.67;;
22679;SDS011;11507;44.858;10.374;2023-09-19T08:02:40;55.75;;;32.10;;
22679;SDS011;11507;44.858;10.374;2023-09-19T08:05:07;51.75;;;30.10;;
22679;SDS011;11507;44.858;10.374;2023-09-19T08:07:37;57.80;;;30.88;;
22679;SDS011;11507;44.858;10.374;2023-09-19T08:10:05;50.08;;;29.55;;
22679;SDS011;11507;44.858;10.374;2023-09-19T08:12:39;57.80;;;31.23;;
22679;SDS011;11507;44.858;10.374;2023-09-19T08:15:15;51.28;;;29.55;;
22679;SDS011;11507;44.858;10.374;2023-09-19T08:17:42;51.95;;;30.00;;
22679;SDS011;11507;44.858;10.374;2023-09-19T08:20:09;50.85;;;29.63;;
22679;SDS011;11507;44.858;10.374;2023-09-19T08:25:17;48.60;;;28.52;;
22679;SDS011;11507;44.858;10.374;2023-09-19T08:27:47;49.20;;;27.15;;
22679;SDS011;11507;44.858;10.374;2023-09-19T08:30:15;42.40;;;26.45;;
22679;SDS011;11507;44.858;10.374;2023-09-19T08:32:43;44.78;;;26.83;;
22679;SDS011;11507;44.858;10.374;2023-09-19T08:35:13;43.53;;;25.67;;
22679;SDS011;11507;44.858;10.374;2023-09-19T08:37:39;38.00;;;22.38;;
22679;SDS011;11507;44.858;10.374;2023-09-19T08:40:05;44.65;;;24.70;;
22679;SDS011;11507;44.858;10.374;2023-09-19T08:42:56;43.58;;;25.67;;
22679;SDS011;11507;44.858;10.374;2023-09-19T08:45:22;40.15;;;24.10;;
22679;SDS011;11507;44.858;10.374;2023-09-19T08:50:35;41.10;;;22.50;;
22679;SDS011;11507;44.858;10.374;2023-09-19T08:53:12;45.73;;;24.80;;
22679;SDS011;11507;44.858;10.374;2023-09-19T08:56:09;41.45;;;23.15;;
22679;SDS011;11507;44.858;10.374;2023-09-19T08:58:46;46.90;;;24.55;;
22679;SDS011;11507;44.858;10.374;2023-09-19T09:01:22;45.40;;;25.77;;
22679;SDS011;11507;44.858;10.374;2023-09-19T09:03:53;45.58;;;28.08;;
22679;SDS011;11507;44.858;10.374;2023-09-19T09:06:21;47.63;;;27.65;;
22679;SDS011;11507;44.858;10.374;2023-09-19T09:08:50;49.42;;;27.48;;
22679;SDS011;11507;44.858;10.374;2023-09-19T09:11:17;47.67;;;26.25;;
22679;SDS011;11507;44.858;10.374;2023-09-19T09:13:45;42.13;;;26.20;;
22679;SDS011;11507;44.858;10.374;2023-09-19T09:16:12;46.45;;;26.65;;
22679;SDS011;11507;44.858;10.374;2023-09-19T09:18:39;47.60;;;26.55;;
22679;SDS011;11507;44.858;10.374;2023-09-19T09:21:06;42.92;;;24.75;;
22679;SDS011;11507;44.858;10.374;2023-09-19T09:23:32;40.85;;;24.70;;
22679;SDS011;11507;44.858;10.374;2023-09-19T09:25:59;39.30;;;23.17;;
22679;SDS011;11507;44.858;10.374;2023-09-19T09:28:30;40.78;;;22.60;;
22679;SDS011;11507;44.858;10.374;2023-09-19T09:30:58;33.60;;;20.73;;
22679;SDS011;11507;44.858;10.374;2023-09-19T09:33:33;34.85;;;20.55;;
22679;SDS011;11507;44.858;10.374;2023-09-19T09:36:01;30.95;;;18.35;;
22679;SDS011;11507;44.858;10.374;2023-09-19T09:38:29;31.23;;;18.42;;
22679;SDS011;11507;44.858;10.374;2023-09-19T09:41:09;31.30;;;19.58;;
22679;SDS011;11507;44.858;10.374;2023-09-19T09:43:36;32.05;;;19.80;;
22679;SDS011;11507;44.858;10.374;2023-09-19T09:48:56;30.48;;;18.27;;
22679;SDS011;11507;44.858;10.374;2023-09-19T09:51:43;30.95;;;19.50;;
22679;SDS011;11507;44.858;10.374;2023-09-19T09:54:34;31.38;;;18.90;;
22679;SDS011;11507;44.858;10.374;2023-09-19T09:57:07;36.22;;;19.65;;
22679;SDS011;11507;44.858;10.374;2023-09-19T10:02:16;28.77;;;16.30;;
22679;SDS011;11507;44.858;10.374;2023-09-19T10:04:53;32.92;;;18.40;;
22679;SDS011;11507;44.858;10.374;2023-09-19T10:07:25;23.90;;;13.45;;
22679;SDS011;11507;44.858;10.374;2023-09-19T10:10:01;24.50;;;13.13;;
22679;SDS011;11507;44.858;10.374;2023-09-19T10:12:47;26.95;;;14.98;;
22679;SDS011;11507;44.858;10.374;2023-09-19T10:15:15;26.15;;;15.40;;
22679;SDS011;11507;44.858;10.374;2023-09-19T10:17:45;25.95;;;14.02;;
22679;SDS011;11507;44.858;10.374;2023-09-19T10:20:16;26.73;;;13.55;;
22679;SDS011;11507;44.858;10.374;2023-09-19T10:23:07;26.85;;;13.27;;
22679;SDS011;11507;44.858;10.374;2023-09-19T10:25:45;26.33;;;14.80;;
22679;SDS011;11507;44.858;10.374;2023-09-19T10:28:14;24.20;;;13.43;;
22679;SDS011;11507;44.858;10.374;2023-09-19T10:30:45;24.98;;;14.50;;
22679;SDS011;11507;44.858;10.374;2023-09-19T10:33:14;22.75;;;14.27;;
22679;SDS011;11507;44.858;10.374;2023-09-19T10:35:43;24.80;;;14.63;;
22679;SDS011;11507;44.858;10.374;2023-09-19T10:38:10;26.38;;;14.93;;
22679;SDS011;11507;44.858;10.374;2023-09-19T10:40:38;24.52;;;15.35;;
22679;SDS011;11507;44.858;10.374;2023-09-19T10:43:12;23.13;;;14.45;;
22679;SDS011;11507;44.858;10.374;2023-09-19T10:45:43;23.38;;;15.20;;
22679;SDS011;11507;44.858;10.374;2023-09-19T10:48:12;25.85;;;14.13;;
22679;SDS011;11507;44.858;10.374;2023-09-19T10:50:43;23.13;;;13.23;;
22679;SDS011;11507;44.858;10.374;2023-09-19T10:53:40;20.50;;;12.88;;
22679;SDS011;11507;44.858;10.374;2023-09-19T10:56:17;27.00;;;14.93;;
22679;SDS011;11507;44.858;10.374;2023-09-19T10:58:48;23.65;;;14.77;;
22679;SDS011;11507;44.858;10.374;2023-09-19T11:01:15;22.83;;;13.30;;
22679;SDS011;11507;44.858;10.374;2023-09-19T11:03:42;22.98;;;13.40;;
22679;SDS011;11507;44.858;10.374;2023-09-19T11:30:41;21.27;;;10.95;;
22679;SDS011;11507;44.858;10.374;2023-09-19T11:36:03;19.50;;;11.98;;
22679;SDS011;11507;44.858;10.374;2023-09-19T11:43:48;19.45;;;11.77;;
22679;SDS011;11507;44.858;10.374;2023-09-19T11:46:20;19.08;;;11.60;;
22679;SDS011;11507;44.858;10.374;2023-09-19T11:48:50;23.30;;;11.98;;
22679;SDS011;11507;44.858;10.374;2023-09-19T11:51:18;21.38;;;12.48;;
22679;SDS011;11507;44.858;10.374;2023-09-19T11:53:48;19.83;;;10.60;;
22679;SDS011;11507;44.858;10.374;2023-09-19T11:56:16;18.08;;;11.13;;
22679;SDS011;11507;44.858;10.374;2023-09-19T11:58:45;21.45;;;12.75;;
22679;SDS011;11507;44.858;10.374;2023-09-19T12:01:20;18.00;;;10.65;;
22679;SDS011;11507;44.858;10.374;2023-09-19T12:04:00;23.80;;;13.00;;
22679;SDS011;11507;44.858;10.374;2023-09-19T12:06:29;22.73;;;10.82;;
22679;SDS011;11507;44.858;10.374;2023-09-19T12:08:58;20.05;;;11.82;;
22679;SDS011;11507;44.858;10.374;2023-09-19T12:11:27;18.98;;;11.20;;
22679;SDS011;11507;44.858;10.374;2023-09-19T12:13:58;24.17;;;13.43;;
22679;SDS011;11507;44.858;10.374;2023-09-19T12:16:29;21.65;;;11.82;;
22679;SDS011;11507;44.858;10.374;2023-09-19T12:18:56;19.20;;;10.32;;
22679;SDS011;11507;44.858;10.374;2023-09-19T12:21:24;18.13;;;11.20;;
22679;SDS011;11507;44.858;10.374;2023-09-19T12:23:59;16.98;;;9.65;;
22679;SDS011;11507;44.858;10.374;2023-09-19T12:26:30;20.50;;;11.57;;
22679;SDS011;11507;44.858;10.374;2023-09-19T12:29:14;20.33;;;11.50;;
22679;SDS011;11507;44.858;10.374;2023-09-19T12:31:48;19.55;;;11.23;;
22679;SDS011;11507;44.858;10.374;2023-09-19T12:34:29;19.75;;;11.80;;
22679;SDS011;11507;44.858;10.374;2023-09-19T12:37:07;17.48;;;9.88;;
22679;SDS011;11507;44.858;10.374;2023-09-19T12:40:03;23.40;;;12.43;;
22679;SDS011;11507;44.858;10.374;2023-09-19T12:42:41;20.63;;;12.35;;
22679;SDS011;11507;44.858;10.374;2023-09-19T12:45:08;23.38;;;11.65;;
22679;SDS011;11507;44.858;10.374;2023-09-19T12:47:34;17.98;;;9.90;;
22679;SDS011;11507;44.858;10.374;2023-09-19T12:50:13;17.25;;;11.18;;
22679;SDS011;11507;44.858;10.374;2023-09-19T12:52:47;15.48;;;9.95;;
22679;SDS011;11507;44.858;10.374;2023-09-19T13:00:31;15.82;;;9.85;;
22679;SDS011;11507;44.858;10.374;2023-09-19T13:05:49;14.75;;;8.90;;
22679;SDS011;11507;44.858;10.374;2023-09-19T13:08:27;20.83;;;10.88;;
22679;SDS011;11507;44.858;10.374;2023-09-19T13:11:04;21.15;;;11.10;;
22679;SDS011;11507;44.858;10.374;2023-09-19T13:13:38;17.38;;;10.70;;
22679;SDS011;11507;44.858;10.374;2023-09-19T13:16:07;21.73;;;9.93;;
22679;SDS011;11507;44.858;10.374;2023-09-19T13:18:44;16.60;;;9.40;;
22679;SDS011;11507;44.858;10.374;2023-09-19T13:21:27;17.38;;;9.82;;
22679;SDS011;11507;44.858;10.374;2023-09-19T13:26:48;18.23;;;9.18;;
22679;SDS011;11507;44.858;10.374;2023-09-19T13:29:15;16.80;;;8.68;;
22679;SDS011;11507;44.858;10.374;2023-09-19T13:31:47;16.73;;;8.75;;
22679;SDS011;11507;44.858;10.374;2023-09-19T13:34:13;16.65;;;9.10;;
22679;SDS011;11507;44.858;10.374;2023-09-19T13:36:42;15.65;;;9.10;;
22679;SDS011;11507;44.858;10.374;2023-09-19T13:39:08;17.48;;;8.50;;
22679;SDS011;11507;44.858;10.374;2023-09-19T13:41:35;14.07;;;7.85;;
22679;SDS011;11507;44.858;10.374;2023-09-19T13:44:04;12.15;;;8.52;;
22679;SDS011;11507;44.858;10.374;2023-09-19T13:46:31;17.25;;;8.25;;
22679;SDS011;11507;44.858;10.374;2023-09-19T13:49:00;15.82;;;8.00;;
22679;SDS011;11507;44.858;10.374;2023-09-19T13:51:29;21.67;;;10.00;;
22679;SDS011;11507;44.858;10.374;2023-09-19T13:53:56;17.38;;;8.70;;
22679;SDS011;11507;44.858;10.374;2023-09-19T13:56:22;17.60;;;8.45;;
22679;SDS011;11507;44.858;10.374;2023-09-19T13:58:50;16.65;;;8.57;;
22679;SDS011;11507;44.858;10.374;2023-09-19T14:01:16;14.38;;;8.27;;
22679;SDS011;11507;44.858;10.374;2023-09-19T14:03:42;14.27;;;8.00;;
22679;SDS011;11507;44.858;10.374;2023-09-19T14:06:15;15.02;;;10.13;;
22679;SDS011;11507;44.858;10.374;2023-09-19T14:08:42;16.60;;;8.65;;
22679;SDS011;11507;44.858;10.374;2023-09-19T14:11:12;13.55;;;7.25;;
22679;SDS011;11507;44.858;10.374;2023-09-19T14:13:39;17.35;;;8.30;;
22679;SDS011;11507;44.858;10.374;2023-09-19T14:16:08;16.65;;;8.20;;
22679;SDS011;11507;44.858;10.374;2023-09-19T14:18:35;16.13;;;7.13;;
22679;SDS011;11507;44.858;10.374;2023-09-19T14:21:04;14.63;;;7.55;;
22679;SDS011;11507;44.858;10.374;2023-09-19T14:23:37;16.45;;;8.40;;
22679;SDS011;11507;44.858;10.374;2023-09-19T14:26:04;12.80;;;7.30;;
22679;SDS011;11507;44.858;10.374;2023-09-19T14:28:31;20.38;;;8.32;;
22679;SDS011;11507;44.858;10.374;2023-09-19T14:31:08;13.73;;;7.82;;
22679;SDS011;11507;44.858;10.374;2023-09-19T14:33:35;14.17;;;7.87;;
22679;SDS011;11507;44.858;10.374;2023-09-19T14:36:02;15.57;;;7.43;;
22679;SDS011;11507;44.858;10.374;2023-09-19T14:38:32;13.25;;;7.78;;
22679;SDS011;11507;44.858;10.374;2023-09-19T14:41:00;10.73;;;6.93;;
22679;SDS011;11507;44.858;10.374;2023-09-19T14:43:26;13.73;;;7.60;;
22679;SDS011;11507;44.858;10.374;2023-09-19T14:45:54;16.45;;;7.43;;
22679;SDS011;11507;44.858;10.374;2023-09-19T14:48:22;13.20;;;7.25;;
22679;SDS011;11507;44.858;10.374;2023-09-19T14:50:52;16.33;;;7.63;;
22679;SDS011;11507;44.858;10.374;2023-09-19T14:53:18;17.67;;;7.70;;
22679;SDS011;11507;44.858;10.374;2023-09-19T14:55:45;13.07;;;7.55;;
22679;SDS011;11507;44.858;10.374;2023-09-19T14:58:13;14.55;;;6.85;;
22679;SDS011;11507;44.858;10.374;2023-09-19T15:00:39;14.23;;;7.90;;
22679;SDS011;11507;44.858;10.374;2023-09-19T15:03:06;17.90;;;7.93;;
22679;SDS011;11507;44.858;10.374;2023-09-19T15:05:32;18.70;;;6.65;;
22679;SDS011;11507;44.858;10.374;2023-09-19T15:07:59;13.63;;;6.93;;
22679;SDS011;11507;44.858;10.374;2023-09-19T15:10:25;12.13;;;7.80;;
22679;SDS011;11507;44.858;10.374;2023-09-19T15:12:51;18.52;;;7.78;;
22679;SDS011;11507;44.858;10.374;2023-09-19T15:15:18;14.73;;;7.35;;
22679;SDS011;11507;44.858;10.374;2023-09-19T15:17:44;11.25;;;7.10;;
22679;SDS011;11507;44.858;10.374;2023-09-19T15:20:10;13.13;;;6.97;;
22679;SDS011;11507;44.858;10.374;2023-09-19T15:22:39;14.90;;;7.13;;
22679;SDS011;11507;44.858;10.374;2023-09-19T15:25:05;16.83;;;7.47;;
22679;SDS011;11507;44.858;10.374;2023-09-19T15:27:32;14.00;;;7.70;;
22679;SDS011;11507;44.858;10.374;2023-09-19T15:30:01;11.70;;;6.78;;
22679;SDS011;11507;44.858;10.374;2023-09-19T15:32:31;18.48;;;7.60;;
22679;SDS011;11507;44.858;10.374;2023-09-19T15:34:57;12.85;;;7.40;;